aviador You're here:

KMKT Decoded Metar

MANKATO in MN, USA
Report Time2017-08-17 12:56:00
UTC Time2017-08-17 13:29:08
Flight Rules mvfr MVFR
Wind300° at 18 Gusting to 22 kt
W.Decomp.*RWY 33: 14.9 kt HW 10.1 kt LCW
RWY 22: 4.4 kt HW 17.5 kt RCW
W.Rank300° ranks 6
Current wind is above 300° avg. (10.9)
Visibility9999 m
Phenomena:Light Rain
Clouds:Overcast 012 Hf
Expected CloudBase > 400 ft AGL from Temp-Dew spread
Ceiling1,200 ft
Temp18°C (ISA +5)
Dew Point17°C (94% RH)
AAT13.9°C
QNH1003 hPa
Density Alt2,211 ft
Elevation1,020 ft
Report Wrong Elevation
Raw Report
METAR KMKT 171256Z AUTO 30018G22KT 10SM -RA OVC012 18/17 A2961 RMK
AO2 PK WND 31027/1241 SLP027 P0000 T01830172=

Extra information for KMKT:More info

Metar Taf Metar & Taf Last 4 Metars F.Rules Stats Wind Profile Meteogram Temp Stats Airport Information Weather charts Add Link Nearby VenuesMetar ALERT Operation Metar Decoded Social comments

AIRNAV info for KMKT